sensor_id;sensor_type;location;lat;lon;timestamp;P1;durP1;ratioP1;P2;durP2;ratioP2
79261;SDS011;68699;48.220;16.358;2023-06-04T00:02:19;4.80;;;2.97;;
79261;SDS011;68699;48.220;16.358;2023-06-04T00:04:45;4.33;;;2.50;;
79261;SDS011;68699;48.220;16.358;2023-06-04T00:07:12;4.27;;;3.07;;
79261;SDS011;68699;48.220;16.358;2023-06-04T00:09:38;4.43;;;2.90;;
79261;SDS011;68699;48.220;16.358;2023-06-04T00:12:04;3.53;;;2.57;;
79261;SDS011;68699;48.220;16.358;2023-06-04T00:14:30;2.93;;;2.37;;
79261;SDS011;68699;48.220;16.358;2023-06-04T00:16:56;4.10;;;2.90;;
79261;SDS011;68699;48.220;16.358;2023-06-04T00:19:22;4.50;;;2.47;;
79261;SDS011;68699;48.220;16.358;2023-06-04T00:21:49;3.80;;;2.60;;
79261;SDS011;68699;48.220;16.358;2023-06-04T00:24:15;4.70;;;2.57;;
79261;SDS011;68699;48.220;16.358;2023-06-04T00:26:42;3.00;;;2.67;;
79261;SDS011;68699;48.220;16.358;2023-06-04T00:29:08;3.67;;;2.60;;
79261;SDS011;68699;48.220;16.358;2023-06-04T00:31:34;2.60;;;2.40;;
79261;SDS011;68699;48.220;16.358;2023-06-04T00:34:03;2.50;;;2.23;;
79261;SDS011;68699;48.220;16.358;2023-06-04T00:36:29;3.23;;;2.63;;
79261;SDS011;68699;48.220;16.358;2023-06-04T00:38:55;3.03;;;2.43;;
79261;SDS011;68699;48.220;16.358;2023-06-04T00:41:21;3.20;;;2.90;;
79261;SDS011;68699;48.220;16.358;2023-06-04T00:43:47;2.40;;;2.20;;
79261;SDS011;68699;48.220;16.358;2023-06-04T00:46:27;3.80;;;2.80;;
79261;SDS011;68699;48.220;16.358;2023-06-04T00:48:54;4.57;;;2.70;;
79261;SDS011;68699;48.220;16.358;2023-06-04T00:51:21;3.47;;;2.37;;
79261;SDS011;68699;48.220;16.358;2023-06-04T00:53:50;2.83;;;2.63;;
79261;SDS011;68699;48.220;16.358;2023-06-04T00:56:16;5.20;;;2.50;;
79261;SDS011;68699;48.220;16.358;2023-06-04T00:58:43;3.57;;;2.60;;
79261;SDS011;68699;48.220;16.358;2023-06-04T01:01:12;3.33;;;2.70;;
79261;SDS011;68699;48.220;16.358;2023-06-04T01:03:41;3.50;;;2.47;;
79261;SDS011;68699;48.220;16.358;2023-06-04T01:06:12;3.63;;;2.63;;
79261;SDS011;68699;48.220;16.358;2023-06-04T01:08:39;3.13;;;2.37;;
79261;SDS011;68699;48.220;16.358;2023-06-04T01:11:08;5.07;;;2.70;;
79261;SDS011;68699;48.220;16.358;2023-06-04T01:13:34;3.33;;;2.50;;
79261;SDS011;68699;48.220;16.358;2023-06-04T01:16:00;4.07;;;2.90;;
79261;SDS011;68699;48.220;16.358;2023-06-04T01:18:28;4.47;;;2.63;;
79261;SDS011;68699;48.220;16.358;2023-06-04T01:20:59;2.70;;;2.50;;
79261;SDS011;68699;48.220;16.358;2023-06-04T01:26:02;3.27;;;2.60;;
79261;SDS011;68699;48.220;16.358;2023-06-04T01:28:30;3.80;;;2.63;;
79261;SDS011;68699;48.220;16.358;2023-06-04T01:30:56;3.13;;;2.27;;
79261;SDS011;68699;48.220;16.358;2023-06-04T01:33:24;3.70;;;2.73;;
79261;SDS011;68699;48.220;16.358;2023-06-04T01:35:51;2.47;;;2.27;;
79261;SDS011;68699;48.220;16.358;2023-06-04T01:38:17;3.90;;;2.63;;
79261;SDS011;68699;48.220;16.358;2023-06-04T01:40:43;6.33;;;2.90;;
79261;SDS011;68699;48.220;16.358;2023-06-04T01:43:09;5.10;;;2.60;;
79261;SDS011;68699;48.220;16.358;2023-06-04T01:45:36;5.20;;;2.17;;
79261;SDS011;68699;48.220;16.358;2023-06-04T01:48:02;2.83;;;2.30;;
79261;SDS011;68699;48.220;16.358;2023-06-04T01:50:28;3.77;;;2.50;;
79261;SDS011;68699;48.220;16.358;2023-06-04T01:52:55;4.07;;;2.90;;
79261;SDS011;68699;48.220;16.358;2023-06-04T01:55:22;4.57;;;2.80;;
79261;SDS011;68699;48.220;16.358;2023-06-04T01:57:50;2.97;;;2.50;;
79261;SDS011;68699;48.220;16.358;2023-06-04T02:00:16;5.83;;;2.70;;
79261;SDS011;68699;48.220;16.358;2023-06-04T02:02:44;3.53;;;2.83;;
79261;SDS011;68699;48.220;16.358;2023-06-04T02:05:13;4.57;;;2.80;;
79261;SDS011;68699;48.220;16.358;2023-06-04T02:07:43;2.87;;;2.67;;
79261;SDS011;68699;48.220;16.358;2023-06-04T02:10:14;3.20;;;2.60;;
79261;SDS011;68699;48.220;16.358;2023-06-04T02:12:41;4.93;;;3.03;;
79261;SDS011;68699;48.220;16.358;2023-06-04T02:15:09;4.00;;;2.60;;
79261;SDS011;68699;48.220;16.358;2023-06-04T02:17:36;3.83;;;2.80;;
79261;SDS011;68699;48.220;16.358;2023-06-04T02:20:05;3.93;;;2.90;;
79261;SDS011;68699;48.220;16.358;2023-06-04T02:22:32;3.20;;;2.60;;
79261;SDS011;68699;48.220;16.358;2023-06-04T02:24:58;4.87;;;2.73;;
79261;SDS011;68699;48.220;16.358;2023-06-04T02:27:25;3.33;;;2.63;;
79261;SDS011;68699;48.220;16.358;2023-06-04T02:29:54;3.67;;;2.73;;
79261;SDS011;68699;48.220;16.358;2023-06-04T02:32:20;3.10;;;2.80;;
79261;SDS011;68699;48.220;16.358;2023-06-04T02:34:46;3.97;;;2.63;;
79261;SDS011;68699;48.220;16.358;2023-06-04T02:37:13;4.03;;;2.60;;
79261;SDS011;68699;48.220;16.358;2023-06-04T02:39:40;4.97;;;2.90;;
79261;SDS011;68699;48.220;16.358;2023-06-04T02:42:06;4.17;;;2.83;;
79261;SDS011;68699;48.220;16.358;2023-06-04T02:44:33;2.90;;;2.47;;
79261;SDS011;68699;48.220;16.358;2023-06-04T02:46:59;3.40;;;2.83;;
79261;SDS011;68699;48.220;16.358;2023-06-04T02:49:25;3.53;;;2.47;;
79261;SDS011;68699;48.220;16.358;2023-06-04T02:51:51;3.23;;;2.77;;
79261;SDS011;68699;48.220;16.358;2023-06-04T02:54:17;4.67;;;2.80;;
79261;SDS011;68699;48.220;16.358;2023-06-04T02:56:43;3.37;;;2.67;;
79261;SDS011;68699;48.220;16.358;2023-06-04T02:59:09;3.00;;;2.63;;
79261;SDS011;68699;48.220;16.358;2023-06-04T03:01:36;2.60;;;2.40;;
79261;SDS011;68699;48.220;16.358;2023-06-04T03:04:02;3.23;;;2.80;;
79261;SDS011;68699;48.220;16.358;2023-06-04T03:06:30;4.83;;;2.77;;
79261;SDS011;68699;48.220;16.358;2023-06-04T03:08:59;3.43;;;2.97;;
79261;SDS011;68699;48.220;16.358;2023-06-04T03:11:27;3.20;;;2.90;;
79261;SDS011;68699;48.220;16.358;2023-06-04T03:13:53;3.30;;;3.00;;
79261;SDS011;68699;48.220;16.358;2023-06-04T03:16:19;4.13;;;2.77;;
79261;SDS011;68699;48.220;16.358;2023-06-04T03:18:46;4.53;;;2.73;;
79261;SDS011;68699;48.220;16.358;2023-06-04T03:21:12;4.33;;;2.67;;
79261;SDS011;68699;48.220;16.358;2023-06-04T03:23:39;2.67;;;2.30;;
79261;SDS011;68699;48.220;16.358;2023-06-04T03:26:05;3.80;;;2.90;;
79261;SDS011;68699;48.220;16.358;2023-06-04T03:28:32;3.50;;;2.70;;
79261;SDS011;68699;48.220;16.358;2023-06-04T03:30:58;3.13;;;2.80;;
79261;SDS011;68699;48.220;16.358;2023-06-04T03:33:25;3.57;;;2.77;;
79261;SDS011;68699;48.220;16.358;2023-06-04T03:35:51;2.80;;;2.60;;
79261;SDS011;68699;48.220;16.358;2023-06-04T03:38:18;3.80;;;2.60;;
79261;SDS011;68699;48.220;16.358;2023-06-04T03:40:45;3.57;;;3.00;;
79261;SDS011;68699;48.220;16.358;2023-06-04T03:43:11;4.03;;;3.00;;
79261;SDS011;68699;48.220;16.358;2023-06-04T03:45:37;4.83;;;3.10;;
79261;SDS011;68699;48.220;16.358;2023-06-04T03:48:03;4.13;;;3.13;;
79261;SDS011;68699;48.220;16.358;2023-06-04T03:50:30;4.73;;;3.03;;
79261;SDS011;68699;48.220;16.358;2023-06-04T03:52:56;4.83;;;2.80;;
79261;SDS011;68699;48.220;16.358;2023-06-04T03:55:22;3.37;;;2.80;;
79261;SDS011;68699;48.220;16.358;2023-06-04T03:57:49;3.60;;;2.90;;
79261;SDS011;68699;48.220;16.358;2023-06-04T04:00:15;3.63;;;2.90;;
79261;SDS011;68699;48.220;16.358;2023-06-04T04:02:42;2.93;;;2.63;;
79261;SDS011;68699;48.220;16.358;2023-06-04T04:05:08;3.67;;;2.90;;
79261;SDS011;68699;48.220;16.358;2023-06-04T04:07:36;5.80;;;2.87;;
79261;SDS011;68699;48.220;16.358;2023-06-04T04:10:02;3.87;;;3.03;;
79261;SDS011;68699;48.220;16.358;2023-06-04T04:12:29;4.17;;;2.90;;
79261;SDS011;68699;48.220;16.358;2023-06-04T04:14:56;3.67;;;2.83;;
79261;SDS011;68699;48.220;16.358;2023-06-04T04:17:22;5.57;;;3.20;;
79261;SDS011;68699;48.220;16.358;2023-06-04T04:19:48;4.30;;;2.90;;
79261;SDS011;68699;48.220;16.358;2023-06-04T04:22:14;5.20;;;3.23;;
79261;SDS011;68699;48.220;16.358;2023-06-04T04:24:42;4.97;;;2.93;;
79261;SDS011;68699;48.220;16.358;2023-06-04T04:27:09;2.97;;;2.77;;
79261;SDS011;68699;48.220;16.358;2023-06-04T04:29:38;3.97;;;3.03;;
79261;SDS011;68699;48.220;16.358;2023-06-04T04:32:04;5.63;;;3.00;;
79261;SDS011;68699;48.220;16.358;2023-06-04T04:34:49;4.17;;;3.10;;
79261;SDS011;68699;48.220;16.358;2023-06-04T04:37:17;4.30;;;2.90;;
79261;SDS011;68699;48.220;16.358;2023-06-04T04:39:49;5.27;;;2.90;;
79261;SDS011;68699;48.220;16.358;2023-06-04T04:42:17;6.23;;;2.93;;
79261;SDS011;68699;48.220;16.358;2023-06-04T04:44:43;3.10;;;2.70;;
79261;SDS011;68699;48.220;16.358;2023-06-04T04:47:13;4.47;;;2.80;;
79261;SDS011;68699;48.220;16.358;2023-06-04T04:49:39;3.73;;;3.17;;
79261;SDS011;68699;48.220;16.358;2023-06-04T04:52:05;3.63;;;3.13;;
79261;SDS011;68699;48.220;16.358;2023-06-04T04:54:31;3.60;;;2.80;;
79261;SDS011;68699;48.220;16.358;2023-06-04T04:56:57;4.37;;;3.10;;
79261;SDS011;68699;48.220;16.358;2023-06-04T04:59:23;4.47;;;2.97;;
79261;SDS011;68699;48.220;16.358;2023-06-04T05:01:49;3.83;;;2.93;;
79261;SDS011;68699;48.220;16.358;2023-06-04T05:04:16;4.87;;;3.03;;
79261;SDS011;68699;48.220;16.358;2023-06-04T05:06:42;5.20;;;3.30;;
79261;SDS011;68699;48.220;16.358;2023-06-04T05:09:08;3.77;;;3.07;;
79261;SDS011;68699;48.220;16.358;2023-06-04T05:11:34;4.07;;;3.50;;
79261;SDS011;68699;48.220;16.358;2023-06-04T05:14:00;4.00;;;3.60;;
79261;SDS011;68699;48.220;16.358;2023-06-04T05:16:27;3.63;;;3.07;;
79261;SDS011;68699;48.220;16.358;2023-06-04T05:18:54;3.40;;;2.93;;
79261;SDS011;68699;48.220;16.358;2023-06-04T05:21:21;4.13;;;3.47;;
79261;SDS011;68699;48.220;16.358;2023-06-04T05:23:48;3.80;;;3.13;;
79261;SDS011;68699;48.220;16.358;2023-06-04T05:26:14;3.73;;;3.10;;
79261;SDS011;68699;48.220;16.358;2023-06-04T05:28:41;3.13;;;2.90;;
79261;SDS011;68699;48.220;16.358;2023-06-04T05:31:09;4.17;;;3.30;;
79261;SDS011;68699;48.220;16.358;2023-06-04T05:33:38;4.93;;;3.37;;
79261;SDS011;68699;48.220;16.358;2023-06-04T05:36:04;5.30;;;3.37;;
79261;SDS011;68699;48.220;16.358;2023-06-04T05:38:30;4.07;;;3.40;;
79261;SDS011;68699;48.220;16.358;2023-06-04T05:40:56;5.47;;;3.57;;
79261;SDS011;68699;48.220;16.358;2023-06-04T05:43:22;6.07;;;3.60;;
79261;SDS011;68699;48.220;16.358;2023-06-04T05:45:49;5.83;;;3.50;;
79261;SDS011;68699;48.220;16.358;2023-06-04T05:48:16;4.40;;;3.23;;
79261;SDS011;68699;48.220;16.358;2023-06-04T05:50:45;5.30;;;3.20;;
79261;SDS011;68699;48.220;16.358;2023-06-04T05:53:12;4.13;;;3.37;;
79261;SDS011;68699;48.220;16.358;2023-06-04T05:55:38;4.60;;;3.07;;
79261;SDS011;68699;48.220;16.358;2023-06-04T05:58:04;4.47;;;3.30;;
79261;SDS011;68699;48.220;16.358;2023-06-04T06:00:31;3.97;;;3.30;;
79261;SDS011;68699;48.220;16.358;2023-06-04T06:02:57;4.07;;;2.70;;
79261;SDS011;68699;48.220;16.358;2023-06-04T06:05:23;4.30;;;3.43;;
79261;SDS011;68699;48.220;16.358;2023-06-04T06:07:49;3.90;;;3.50;;
79261;SDS011;68699;48.220;16.358;2023-06-04T06:10:15;3.67;;;3.37;;
79261;SDS011;68699;48.220;16.358;2023-06-04T06:12:41;5.23;;;3.33;;
79261;SDS011;68699;48.220;16.358;2023-06-04T06:15:08;4.30;;;3.53;;
79261;SDS011;68699;48.220;16.358;2023-06-04T06:17:35;3.27;;;2.90;;
79261;SDS011;68699;48.220;16.358;2023-06-04T06:20:01;5.37;;;3.93;;
79261;SDS011;68699;48.220;16.358;2023-06-04T06:22:32;3.50;;;3.20;;
79261;SDS011;68699;48.220;16.358;2023-06-04T06:24:59;3.40;;;3.10;;
79261;SDS011;68699;48.220;16.358;2023-06-04T06:27:25;3.93;;;3.50;;
79261;SDS011;68699;48.220;16.358;2023-06-04T06:29:55;3.67;;;3.17;;
79261;SDS011;68699;48.220;16.358;2023-06-04T06:32:22;4.37;;;3.10;;
79261;SDS011;68699;48.220;16.358;2023-06-04T06:34:48;3.80;;;3.10;;
79261;SDS011;68699;48.220;16.358;2023-06-04T06:37:14;4.43;;;3.53;;
79261;SDS011;68699;48.220;16.358;2023-06-04T06:39:40;4.07;;;3.07;;
79261;SDS011;68699;48.220;16.358;2023-06-04T06:42:06;4.37;;;3.47;;
79261;SDS011;68699;48.220;16.358;2023-06-04T06:44:32;5.43;;;3.80;;
79261;SDS011;68699;48.220;16.358;2023-06-04T06:46:58;4.73;;;3.43;;
79261;SDS011;68699;48.220;16.358;2023-06-04T06:49:25;4.23;;;3.43;;
79261;SDS011;68699;48.220;16.358;2023-06-04T06:51:51;4.10;;;3.50;;
79261;SDS011;68699;48.220;16.358;2023-06-04T06:54:17;4.63;;;3.50;;
79261;SDS011;68699;48.220;16.358;2023-06-04T06:56:46;3.83;;;3.40;;
79261;SDS011;68699;48.220;16.358;2023-06-04T06:59:13;5.10;;;3.53;;
79261;SDS011;68699;48.220;16.358;2023-06-04T07:01:40;5.03;;;3.90;;
79261;SDS011;68699;48.220;16.358;2023-06-04T07:04:06;5.87;;;3.50;;
79261;SDS011;68699;48.220;16.358;2023-06-04T07:06:33;3.90;;;3.57;;
79261;SDS011;68699;48.220;16.358;2023-06-04T07:09:01;4.50;;;3.90;;
79261;SDS011;68699;48.220;16.358;2023-06-04T07:11:28;6.97;;;3.90;;
79261;SDS011;68699;48.220;16.358;2023-06-04T07:13:54;4.13;;;3.70;;
79261;SDS011;68699;48.220;16.358;2023-06-04T07:16:20;4.27;;;3.47;;
79261;SDS011;68699;48.220;16.358;2023-06-04T07:18:49;3.53;;;3.23;;
79261;SDS011;68699;48.220;16.358;2023-06-04T07:21:16;3.93;;;3.43;;
79261;SDS011;68699;48.220;16.358;2023-06-04T07:23:44;4.00;;;3.60;;
79261;SDS011;68699;48.220;16.358;2023-06-04T07:26:14;4.30;;;3.20;;
79261;SDS011;68699;48.220;16.358;2023-06-04T07:28:40;4.10;;;3.40;;
79261;SDS011;68699;48.220;16.358;2023-06-04T07:31:07;3.90;;;2.93;;
79261;SDS011;68699;48.220;16.358;2023-06-04T07:33:33;4.30;;;3.07;;
79261;SDS011;68699;48.220;16.358;2023-06-04T07:35:59;4.90;;;3.13;;
79261;SDS011;68699;48.220;16.358;2023-06-04T07:38:25;4.50;;;3.10;;
79261;SDS011;68699;48.220;16.358;2023-06-04T07:40:52;4.77;;;3.13;;
79261;SDS011;68699;48.220;16.358;2023-06-04T07:43:18;3.93;;;3.50;;
79261;SDS011;68699;48.220;16.358;2023-06-04T07:45:44;3.67;;;3.20;;
79261;SDS011;68699;48.220;16.358;2023-06-04T07:48:10;6.27;;;3.53;;
79261;SDS011;68699;48.220;16.358;2023-06-04T07:50:37;4.27;;;3.30;;
79261;SDS011;68699;48.220;16.358;2023-06-04T07:53:03;4.30;;;3.13;;
79261;SDS011;68699;48.220;16.358;2023-06-04T07:55:29;3.37;;;2.93;;
79261;SDS011;68699;48.220;16.358;2023-06-04T07:57:56;3.93;;;3.27;;
79261;SDS011;68699;48.220;16.358;2023-06-04T08:00:22;3.80;;;3.00;;
79261;SDS011;68699;48.220;16.358;2023-06-04T08:02:49;3.50;;;3.20;;
79261;SDS011;68699;48.220;16.358;2023-06-04T08:05:15;4.17;;;3.47;;
79261;SDS011;68699;48.220;16.358;2023-06-04T08:07:42;3.90;;;3.50;;
79261;SDS011;68699;48.220;16.358;2023-06-04T08:10:08;3.97;;;3.57;;
79261;SDS011;68699;48.220;16.358;2023-06-04T08:12:35;5.10;;;3.17;;
79261;SDS011;68699;48.220;16.358;2023-06-04T08:15:02;3.50;;;3.23;;
79261;SDS011;68699;48.220;16.358;2023-06-04T08:17:29;4.23;;;3.37;;
79261;SDS011;68699;48.220;16.358;2023-06-04T08:19:55;4.30;;;3.43;;
79261;SDS011;68699;48.220;16.358;2023-06-04T08:22:21;4.67;;;3.10;;
79261;SDS011;68699;48.220;16.358;2023-06-04T08:24:48;3.83;;;3.37;;
79261;SDS011;68699;48.220;16.358;2023-06-04T08:27:14;4.13;;;3.53;;
79261;SDS011;68699;48.220;16.358;2023-06-04T08:29:40;4.03;;;3.50;;
79261;SDS011;68699;48.220;16.358;2023-06-04T08:32:06;4.77;;;3.67;;
79261;SDS011;68699;48.220;16.358;2023-06-04T08:34:32;4.70;;;3.63;;
79261;SDS011;68699;48.220;16.358;2023-06-04T08:36:59;4.17;;;3.40;;
79261;SDS011;68699;48.220;16.358;2023-06-04T08:39:25;6.50;;;3.60;;
79261;SDS011;68699;48.220;16.358;2023-06-04T08:41:52;4.37;;;3.40;;
79261;SDS011;68699;48.220;16.358;2023-06-04T08:44:18;5.33;;;3.47;;
79261;SDS011;68699;48.220;16.358;2023-06-04T08:46:44;4.27;;;3.87;;
79261;SDS011;68699;48.220;16.358;2023-06-04T08:49:11;3.67;;;3.20;;
79261;SDS011;68699;48.220;16.358;2023-06-04T08:51:38;4.00;;;3.63;;
79261;SDS011;68699;48.220;16.358;2023-06-04T08:54:05;3.90;;;3.47;;
79261;SDS011;68699;48.220;16.358;2023-06-04T08:56:32;4.27;;;3.83;;
79261;SDS011;68699;48.220;16.358;2023-06-04T08:59:03;4.40;;;3.20;;
79261;SDS011;68699;48.220;16.358;2023-06-04T09:01:30;5.33;;;3.63;;
79261;SDS011;68699;48.220;16.358;2023-06-04T09:03:58;4.93;;;3.50;;
79261;SDS011;68699;48.220;16.358;2023-06-04T09:06:25;3.70;;;3.40;;
79261;SDS011;68699;48.220;16.358;2023-06-04T09:08:52;5.47;;;4.10;;
79261;SDS011;68699;48.220;16.358;2023-06-04T09:11:18;4.23;;;3.10;;
79261;SDS011;68699;48.220;16.358;2023-06-04T09:13:46;5.53;;;3.47;;
79261;SDS011;68699;48.220;16.358;2023-06-04T09:16:13;3.90;;;3.20;;
79261;SDS011;68699;48.220;16.358;2023-06-04T09:18:39;3.83;;;3.53;;
79261;SDS011;68699;48.220;16.358;2023-06-04T09:21:06;6.27;;;3.60;;
79261;SDS011;68699;48.220;16.358;2023-06-04T09:23:48;6.57;;;3.43;;
79261;SDS011;68699;48.220;16.358;2023-06-04T09:26:14;3.50;;;3.20;;
79261;SDS011;68699;48.220;16.358;2023-06-04T09:28:41;5.67;;;3.30;;
79261;SDS011;68699;48.220;16.358;2023-06-04T09:31:08;4.23;;;3.57;;
79261;SDS011;68699;48.220;16.358;2023-06-04T09:33:48;5.07;;;3.43;;
79261;SDS011;68699;48.220;16.358;2023-06-04T09:36:14;3.50;;;3.20;;
79261;SDS011;68699;48.220;16.358;2023-06-04T09:38:41;4.67;;;3.30;;
79261;SDS011;68699;48.220;16.358;2023-06-04T09:41:14;3.90;;;3.40;;
79261;SDS011;68699;48.220;16.358;2023-06-04T09:43:40;5.07;;;3.40;;
79261;SDS011;68699;48.220;16.358;2023-06-04T09:48:36;7.87;;;3.57;;
79261;SDS011;68699;48.220;16.358;2023-06-04T09:51:12;5.90;;;3.33;;
79261;SDS011;68699;48.220;16.358;2023-06-04T09:53:38;3.97;;;3.00;;
79261;SDS011;68699;48.220;16.358;2023-06-04T09:56:05;2.93;;;2.70;;
79261;SDS011;68699;48.220;16.358;2023-06-04T09:58:32;5.17;;;3.27;;
79261;SDS011;68699;48.220;16.358;2023-06-04T10:00:59;3.63;;;3.33;;
79261;SDS011;68699;48.220;16.358;2023-06-04T10:03:30;4.47;;;3.27;;
79261;SDS011;68699;48.220;16.358;2023-06-04T10:05:58;4.10;;;3.13;;
79261;SDS011;68699;48.220;16.358;2023-06-04T10:08:25;3.40;;;3.10;;
79261;SDS011;68699;48.220;16.358;2023-06-04T10:10:54;5.57;;;3.00;;
79261;SDS011;68699;48.220;16.358;2023-06-04T10:13:21;4.93;;;2.87;;
79261;SDS011;68699;48.220;16.358;2023-06-04T10:15:49;4.97;;;3.50;;
79261;SDS011;68699;48.220;16.358;2023-06-04T10:18:15;3.60;;;3.30;;
79261;SDS011;68699;48.220;16.358;2023-06-04T10:20:41;4.07;;;3.17;;
79261;SDS011;68699;48.220;16.358;2023-06-04T10:23:08;3.30;;;3.00;;
79261;SDS011;68699;48.220;16.358;2023-06-04T10:25:34;4.07;;;3.37;;
79261;SDS011;68699;48.220;16.358;2023-06-04T10:28:01;6.13;;;3.10;;
79261;SDS011;68699;48.220;16.358;2023-06-04T10:30:31;7.33;;;3.67;;
79261;SDS011;68699;48.220;16.358;2023-06-04T10:32:58;4.47;;;3.57;;
79261;SDS011;68699;48.220;16.358;2023-06-04T10:35:34;5.17;;;3.40;;
79261;SDS011;68699;48.220;16.358;2023-06-04T10:38:10;3.30;;;3.00;;
79261;SDS011;68699;48.220;16.358;2023-06-04T10:40:37;3.60;;;3.10;;
79261;SDS011;68699;48.220;16.358;2023-06-04T10:43:12;3.90;;;2.73;;
79261;SDS011;68699;48.220;16.358;2023-06-04T10:45:39;6.00;;;3.07;;
79261;SDS011;68699;48.220;16.358;2023-06-04T10:48:06;3.40;;;3.10;;
79261;SDS011;68699;48.220;16.358;2023-06-04T10:50:33;4.03;;;2.80;;
79261;SDS011;68699;48.220;16.358;2023-06-04T10:53:00;3.10;;;2.80;;
79261;SDS011;68699;48.220;16.358;2023-06-04T10:55:30;4.27;;;2.80;;
79261;SDS011;68699;48.220;16.358;2023-06-04T10:57:57;4.80;;;2.73;;
79261;SDS011;68699;48.220;16.358;2023-06-04T11:03:02;4.70;;;2.90;;
79261;SDS011;68699;48.220;16.358;2023-06-04T11:05:49;4.53;;;2.83;;
79261;SDS011;68699;48.220;16.358;2023-06-04T11:08:25;6.70;;;3.17;;
79261;SDS011;68699;48.220;16.358;2023-06-04T11:10:53;3.27;;;2.80;;
79261;SDS011;68699;48.220;16.358;2023-06-04T11:13:23;3.53;;;2.87;;
79261;SDS011;68699;48.220;16.358;2023-06-04T11:15:51;4.20;;;3.00;;
79261;SDS011;68699;48.220;16.358;2023-06-04T11:18:18;3.13;;;2.83;;
79261;SDS011;68699;48.220;16.358;2023-06-04T11:20:47;4.40;;;2.83;;
79261;SDS011;68699;48.220;16.358;2023-06-04T11:23:14;6.20;;;2.90;;
79261;SDS011;68699;48.220;16.358;2023-06-04T11:25:41;3.70;;;3.17;;
79261;SDS011;68699;48.220;16.358;2023-06-04T11:28:08;2.60;;;2.40;;
79261;SDS011;68699;48.220;16.358;2023-06-04T11:30:39;2.50;;;2.30;;
79261;SDS011;68699;48.220;16.358;2023-06-04T11:33:05;4.40;;;2.80;;
79261;SDS011;68699;48.220;16.358;2023-06-04T11:35:39;4.27;;;2.70;;
79261;SDS011;68699;48.220;16.358;2023-06-04T11:38:05;4.07;;;3.03;;
79261;SDS011;68699;48.220;16.358;2023-06-04T11:40:31;4.53;;;3.10;;
79261;SDS011;68699;48.220;16.358;2023-06-04T11:42:58;5.10;;;3.17;;
79261;SDS011;68699;48.220;16.358;2023-06-04T11:45:24;5.30;;;3.37;;
79261;SDS011;68699;48.220;16.358;2023-06-04T11:47:52;5.27;;;3.00;;
79261;SDS011;68699;48.220;16.358;2023-06-04T11:50:19;3.40;;;3.10;;
79261;SDS011;68699;48.220;16.358;2023-06-04T11:52:46;5.13;;;3.20;;
79261;SDS011;68699;48.220;16.358;2023-06-04T11:55:13;5.70;;;2.80;;
79261;SDS011;68699;48.220;16.358;2023-06-04T11:57:40;3.03;;;2.63;;
79261;SDS011;68699;48.220;16.358;2023-06-04T12:00:06;3.20;;;2.93;;
79261;SDS011;68699;48.220;16.358;2023-06-04T12:02:36;4.37;;;2.93;;
79261;SDS011;68699;48.220;16.358;2023-06-04T12:05:12;3.77;;;3.30;;
79261;SDS011;68699;48.220;16.358;2023-06-04T12:07:39;5.40;;;3.00;;
79261;SDS011;68699;48.220;16.358;2023-06-04T12:10:06;2.90;;;2.60;;
79261;SDS011;68699;48.220;16.358;2023-06-04T12:12:33;5.67;;;2.90;;
79261;SDS011;68699;48.220;16.358;2023-06-04T12:15:03;6.13;;;2.90;;
79261;SDS011;68699;48.220;16.358;2023-06-04T12:17:31;3.20;;;2.77;;
79261;SDS011;68699;48.220;16.358;2023-06-04T12:19:57;4.43;;;2.90;;
79261;SDS011;68699;48.220;16.358;2023-06-04T12:22:24;4.37;;;3.00;;
79261;SDS011;68699;48.220;16.358;2023-06-04T12:24:52;3.50;;;3.20;;
79261;SDS011;68699;48.220;16.358;2023-06-04T12:27:19;4.00;;;2.80;;
79261;SDS011;68699;48.220;16.358;2023-06-04T12:30:02;3.83;;;2.90;;
79261;SDS011;68699;48.220;16.358;2023-06-04T12:32:29;5.17;;;2.87;;
79261;SDS011;68699;48.220;16.358;2023-06-04T12:34:55;3.87;;;3.27;;
79261;SDS011;68699;48.220;16.358;2023-06-04T12:37:21;5.77;;;3.07;;
79261;SDS011;68699;48.220;16.358;2023-06-04T12:39:48;3.60;;;3.10;;
79261;SDS011;68699;48.220;16.358;2023-06-04T12:42:15;3.20;;;2.90;;
79261;SDS011;68699;48.220;16.358;2023-06-04T12:44:41;4.37;;;2.93;;
79261;SDS011;68699;48.220;16.358;2023-06-04T12:47:08;5.33;;;3.10;;
79261;SDS011;68699;48.220;16.358;2023-06-04T12:49:34;3.50;;;3.20;;
79261;SDS011;68699;48.220;16.358;2023-06-04T12:52:00;3.60;;;2.90;;
79261;SDS011;68699;48.220;16.358;2023-06-04T12:54:26;4.53;;;3.10;;
79261;SDS011;68699;48.220;16.358;2023-06-04T12:56:56;5.03;;;3.40;;
79261;SDS011;68699;48.220;16.358;2023-06-04T12:59:23;3.37;;;3.07;;
79261;SDS011;68699;48.220;16.358;2023-06-04T13:01:50;5.97;;;2.90;;
79261;SDS011;68699;48.220;16.358;2023-06-04T13:04:16;5.40;;;3.37;;
79261;SDS011;68699;48.220;16.358;2023-06-04T13:06:42;3.83;;;3.20;;
79261;SDS011;68699;48.220;16.358;2023-06-04T13:09:11;5.20;;;3.30;;
79261;SDS011;68699;48.220;16.358;2023-06-04T13:11:46;3.87;;;2.90;;
79261;SDS011;68699;48.220;16.358;2023-06-04T13:14:12;3.30;;;2.97;;
79261;SDS011;68699;48.220;16.358;2023-06-04T13:16:38;3.97;;;3.30;;
79261;SDS011;68699;48.220;16.358;2023-06-04T13:19:05;4.07;;;3.37;;
79261;SDS011;68699;48.220;16.358;2023-06-04T13:21:32;6.00;;;3.50;;
79261;SDS011;68699;48.220;16.358;2023-06-04T13:23:58;3.87;;;3.47;;
79261;SDS011;68699;48.220;16.358;2023-06-04T13:26:24;3.63;;;3.33;;
79261;SDS011;68699;48.220;16.358;2023-06-04T13:28:50;6.23;;;3.37;;
79261;SDS011;68699;48.220;16.358;2023-06-04T13:31:17;5.17;;;3.30;;
79261;SDS011;68699;48.220;16.358;2023-06-04T13:33:43;5.50;;;3.53;;
79261;SDS011;68699;48.220;16.358;2023-06-04T13:36:10;4.40;;;3.70;;
79261;SDS011;68699;48.220;16.358;2023-06-04T13:38:36;5.10;;;3.43;;
79261;SDS011;68699;48.220;16.358;2023-06-04T13:41:02;5.60;;;3.40;;
79261;SDS011;68699;48.220;16.358;2023-06-04T13:43:28;6.97;;;3.50;;
79261;SDS011;68699;48.220;16.358;2023-06-04T13:45:54;6.43;;;3.30;;
79261;SDS011;68699;48.220;16.358;2023-06-04T13:48:20;5.50;;;3.60;;
79261;SDS011;68699;48.220;16.358;2023-06-04T13:50:47;5.97;;;3.90;;
79261;SDS011;68699;48.220;16.358;2023-06-04T13:53:13;6.30;;;3.80;;
79261;SDS011;68699;48.220;16.358;2023-06-04T13:55:39;3.83;;;3.43;;
79261;SDS011;68699;48.220;16.358;2023-06-04T13:58:08;4.97;;;3.73;;
79261;SDS011;68699;48.220;16.358;2023-06-04T14:00:35;4.33;;;3.57;;
79261;SDS011;68699;48.220;16.358;2023-06-04T14:03:01;7.07;;;3.70;;
79261;SDS011;68699;48.220;16.358;2023-06-04T14:05:27;3.90;;;3.50;;
79261;SDS011;68699;48.220;16.358;2023-06-04T14:07:53;3.80;;;3.50;;
79261;SDS011;68699;48.220;16.358;2023-06-04T14:10:20;5.13;;;3.83;;
79261;SDS011;68699;48.220;16.358;2023-06-04T14:12:46;5.83;;;4.10;;
79261;SDS011;68699;48.220;16.358;2023-06-04T14:15:12;5.23;;;4.00;;
79261;SDS011;68699;48.220;16.358;2023-06-04T14:17:38;6.47;;;3.67;;
79261;SDS011;68699;48.220;16.358;2023-06-04T14:20:05;4.13;;;3.73;;
79261;SDS011;68699;48.220;16.358;2023-06-04T14:22:35;4.90;;;3.80;;
79261;SDS011;68699;48.220;16.358;2023-06-04T14:25:04;4.20;;;3.80;;
79261;SDS011;68699;48.220;16.358;2023-06-04T14:27:31;4.40;;;3.97;;
79261;SDS011;68699;48.220;16.358;2023-06-04T14:29:57;4.10;;;3.63;;
79261;SDS011;68699;48.220;16.358;2023-06-04T14:32:23;4.57;;;3.60;;
79261;SDS011;68699;48.220;16.358;2023-06-04T14:34:49;3.60;;;3.30;;
79261;SDS011;68699;48.220;16.358;2023-06-04T14:37:15;4.30;;;3.90;;
79261;SDS011;68699;48.220;16.358;2023-06-04T14:39:41;4.27;;;3.87;;
79261;SDS011;68699;48.220;16.358;2023-06-04T14:42:08;4.97;;;3.87;;